sensor_id;sensor_type;location;lat;lon;timestamp;pressure;altitude;pressure_sealevel;temperature;humidity
24620;BME280;12763;55.802;37.404;2023-05-22T00:01:40;100154.03;;;15.40;100.00
24620;BME280;12763;55.802;37.404;2023-05-22T00:04:08;100169.97;;;15.33;100.00
24620;BME280;12763;55.802;37.404;2023-05-22T00:06:35;100172.91;;;15.38;100.00
24620;BME280;12763;55.802;37.404;2023-05-22T00:09:01;100166.47;;;15.37;100.00
24620;BME280;12763;55.802;37.404;2023-05-22T00:11:27;100162.63;;;15.38;100.00
24620;BME280;12763;55.802;37.404;2023-05-22T00:13:53;100162.63;;;15.38;100.00
24620;BME280;12763;55.802;37.404;2023-05-22T00:16:19;100162.00;;;15.36;100.00
24620;BME280;12763;55.802;37.404;2023-05-22T00:18:45;100160.06;;;15.37;100.00
24620;BME280;12763;55.802;37.404;2023-05-22T00:21:12;100163.91;;;15.36;100.00
24620;BME280;12763;55.802;37.404;2023-05-22T00:23:38;100158.47;;;15.29;100.00
24620;BME280;12763;55.802;37.404;2023-05-22T00:26:04;100167.03;;;15.27;100.00
24620;BME280;12763;55.802;37.404;2023-05-22T00:28:30;100182.03;;;15.26;100.00
24620;BME280;12763;55.802;37.404;2023-05-22T00:30:55;100178.94;;;15.35;100.00
24620;BME280;12763;55.802;37.404;2023-05-22T00:33:21;100186.16;;;15.36;100.00
24620;BME280;12763;55.802;37.404;2023-05-22T00:35:47;100195.50;;;15.41;100.00
24620;BME280;12763;55.802;37.404;2023-05-22T00:38:30;100198.03;;;15.49;100.00
24620;BME280;12763;55.802;37.404;2023-05-22T00:40:58;100191.66;;;15.42;100.00
24620;BME280;12763;55.802;37.404;2023-05-22T00:43:25;100182.44;;;15.42;100.00
24620;BME280;12763;55.802;37.404;2023-05-22T00:45:51;100176.75;;;15.37;100.00
24620;BME280;12763;55.802;37.404;2023-05-22T00:48:19;100180.25;;;15.32;100.00
24620;BME280;12763;55.802;37.404;2023-05-22T00:50:45;100182.16;;;15.32;100.00
24620;BME280;12763;55.802;37.404;2023-05-22T00:53:12;100180.47;;;15.30;100.00
24620;BME280;12763;55.802;37.404;2023-05-22T00:55:38;100182.50;;;15.05;100.00
24620;BME280;12763;55.802;37.404;2023-05-22T00:58:05;100183.88;;;15.14;100.00
24620;BME280;12763;55.802;37.404;2023-05-22T01:00:34;100185.13;;;15.18;100.00
24620;BME280;12763;55.802;37.404;2023-05-22T01:03:03;100186.72;;;15.26;100.00
24620;BME280;12763;55.802;37.404;2023-05-22T01:05:30;100176.53;;;15.20;100.00
24620;BME280;12763;55.802;37.404;2023-05-22T01:07:55;100171.66;;;15.34;100.00
24620;BME280;12763;55.802;37.404;2023-05-22T01:10:22;100176.66;;;15.43;100.00
24620;BME280;12763;55.802;37.404;2023-05-22T01:16:02;100175.06;;;15.54;100.00
24620;BME280;12763;55.802;37.404;2023-05-22T01:27:03;100182.00;;;15.74;100.00
24620;BME280;12763;55.802;37.404;2023-05-22T01:32:34;100171.59;;;15.70;100.00
24620;BME280;12763;55.802;37.404;2023-05-22T01:35:05;100169.63;;;15.59;100.00
24620;BME280;12763;55.802;37.404;2023-05-22T01:37:33;100169.16;;;15.62;100.00
24620;BME280;12763;55.802;37.404;2023-05-22T01:40:01;100167.91;;;15.58;100.00
24620;BME280;12763;55.802;37.404;2023-05-22T01:42:29;100174.13;;;15.60;100.00
24620;BME280;12763;55.802;37.404;2023-05-22T01:44:56;100177.63;;;15.67;100.00
24620;BME280;12763;55.802;37.404;2023-05-22T01:47:22;100168.16;;;15.56;100.00
24620;BME280;12763;55.802;37.404;2023-05-22T01:49:48;100158.97;;;15.56;100.00
24620;BME280;12763;55.802;37.404;2023-05-22T01:55:23;100166.28;;;15.68;100.00
24620;BME280;12763;55.802;37.404;2023-05-22T01:58:11;100169.88;;;15.69;100.00
24620;BME280;12763;55.802;37.404;2023-05-22T02:00:42;100173.16;;;15.66;100.00
24620;BME280;12763;55.802;37.404;2023-05-22T02:03:17;100166.97;;;15.64;100.00
24620;BME280;12763;55.802;37.404;2023-05-22T02:05:44;100174.13;;;15.60;100.00
24620;BME280;12763;55.802;37.404;2023-05-22T02:08:13;100172.66;;;15.57;100.00
24620;BME280;12763;55.802;37.404;2023-05-22T02:10:41;100169.41;;;15.72;100.00
24620;BME280;12763;55.802;37.404;2023-05-22T02:13:10;100169.16;;;15.62;100.00
24620;BME280;12763;55.802;37.404;2023-05-22T02:15:36;100169.63;;;15.59;100.00
24620;BME280;12763;55.802;37.404;2023-05-22T02:18:02;100159.66;;;15.81;100.00
24620;BME280;12763;55.802;37.404;2023-05-22T02:20:28;100165.81;;;15.83;100.00
24620;BME280;12763;55.802;37.404;2023-05-22T02:22:54;100161.22;;;15.77;100.00
24620;BME280;12763;55.802;37.404;2023-05-22T02:25:20;100164.63;;;15.79;100.00
24620;BME280;12763;55.802;37.404;2023-05-22T02:27:47;100162.66;;;15.68;100.00
24620;BME280;12763;55.802;37.404;2023-05-22T02:30:15;100158.97;;;15.56;100.00
24620;BME280;12763;55.802;37.404;2023-05-22T02:32:42;100167.91;;;15.58;100.00
24620;BME280;12763;55.802;37.404;2023-05-22T02:35:08;100160.69;;;15.57;100.00
24620;BME280;12763;55.802;37.404;2023-05-22T02:37:35;100157.25;;;15.55;100.00
24620;BME280;12763;55.802;37.404;2023-05-22T02:40:02;100164.16;;;15.52;100.00
24620;BME280;12763;55.802;37.404;2023-05-22T02:42:33;100170.09;;;15.56;100.00
24620;BME280;12763;55.802;37.404;2023-05-22T02:45:01;100169.53;;;15.65;100.00
24620;BME280;12763;55.802;37.404;2023-05-22T02:47:32;100168.69;;;15.65;100.00
24620;BME280;12763;55.802;37.404;2023-05-22T02:49:57;100183.66;;;15.64;100.00
24620;BME280;12763;55.802;37.404;2023-05-22T02:52:24;100175.56;;;15.62;100.00
24620;BME280;12763;55.802;37.404;2023-05-22T02:54:49;100187.06;;;15.66;100.00
24620;BME280;12763;55.802;37.404;2023-05-22T02:57:16;100192.00;;;15.64;100.00
24620;BME280;12763;55.802;37.404;2023-05-22T02:59:41;100185.97;;;15.67;100.00
24620;BME280;12763;55.802;37.404;2023-05-22T03:02:08;100188.75;;;15.67;100.00
24620;BME280;12763;55.802;37.404;2023-05-22T03:04:34;100190.09;;;15.64;100.00
24620;BME280;12763;55.802;37.404;2023-05-22T03:07:03;100194.47;;;15.72;100.00
24620;BME280;12763;55.802;37.404;2023-05-22T03:09:30;100191.97;;;15.82;100.00
24620;BME280;12763;55.802;37.404;2023-05-22T03:11:55;100196.56;;;15.88;100.00
24620;BME280;12763;55.802;37.404;2023-05-22T03:14:21;100204.78;;;15.83;100.00
24620;BME280;12763;55.802;37.404;2023-05-22T03:16:47;100205.78;;;15.88;100.00
24620;BME280;12763;55.802;37.404;2023-05-22T03:19:14;100211.84;;;15.97;100.00
24620;BME280;12763;55.802;37.404;2023-05-22T03:21:41;100198.78;;;15.98;100.00
24620;BME280;12763;55.802;37.404;2023-05-22T03:24:09;100208.13;;;16.03;100.00
24620;BME280;12763;55.802;37.404;2023-05-22T03:26:37;100202.31;;;16.05;100.00
24620;BME280;12763;55.802;37.404;2023-05-22T03:29:07;100199.44;;;16.11;100.00
24620;BME280;12763;55.802;37.404;2023-05-22T03:31:33;100193.28;;;16.21;100.00
24620;BME280;12763;55.802;37.404;2023-05-22T03:34:04;100185.75;;;16.21;100.00
24620;BME280;12763;55.802;37.404;2023-05-22T03:36:31;100184.09;;;16.32;99.68
24620;BME280;12763;55.802;37.404;2023-05-22T03:39:03;100181.19;;;16.38;98.75
24620;BME280;12763;55.802;37.404;2023-05-22T03:41:32;100182.41;;;16.42;97.07
24620;BME280;12763;55.802;37.404;2023-05-22T03:43:59;100181.31;;;16.43;95.27
24620;BME280;12763;55.802;37.404;2023-05-22T03:46:25;100181.78;;;16.52;93.74
24620;BME280;12763;55.802;37.404;2023-05-22T03:48:51;100189.97;;;16.54;92.47
24620;BME280;12763;55.802;37.404;2023-05-22T03:51:17;100183.28;;;16.66;91.00
24620;BME280;12763;55.802;37.404;2023-05-22T03:53:43;100185.69;;;16.86;89.51
24620;BME280;12763;55.802;37.404;2023-05-22T03:56:08;100190.53;;;16.90;88.94
24620;BME280;12763;55.802;37.404;2023-05-22T03:58:34;100187.72;;;17.02;87.94
24620;BME280;12763;55.802;37.404;2023-05-22T04:01:00;100179.72;;;17.17;86.71
24620;BME280;12763;55.802;37.404;2023-05-22T04:03:27;100182.00;;;17.20;85.87
24620;BME280;12763;55.802;37.404;2023-05-22T04:05:54;100182.72;;;17.27;84.82
24620;BME280;12763;55.802;37.404;2023-05-22T04:08:21;100178.53;;;17.41;83.93
24620;BME280;12763;55.802;37.404;2023-05-22T04:10:48;100172.56;;;17.49;82.83
24620;BME280;12763;55.802;37.404;2023-05-22T04:13:15;100183.22;;;17.52;82.02
24620;BME280;12763;55.802;37.404;2023-05-22T04:15:42;100175.19;;;17.68;80.76
24620;BME280;12763;55.802;37.404;2023-05-22T04:18:13;100189.94;;;17.80;79.98
24620;BME280;12763;55.802;37.404;2023-05-22T04:20:40;100188.03;;;17.97;78.92
24620;BME280;12763;55.802;37.404;2023-05-22T04:23:08;100195.06;;;17.99;78.67
24620;BME280;12763;55.802;37.404;2023-05-22T04:25:34;100196.66;;;18.12;78.21
24620;BME280;12763;55.802;37.404;2023-05-22T04:28:02;100191.88;;;18.24;77.95
24620;BME280;12763;55.802;37.404;2023-05-22T04:30:32;100190.94;;;18.35;77.48
24620;BME280;12763;55.802;37.404;2023-05-22T04:32:59;100191.94;;;18.12;78.01
24620;BME280;12763;55.802;37.404;2023-05-22T04:35:25;100190.16;;;18.23;77.52
24620;BME280;12763;55.802;37.404;2023-05-22T04:37:55;100185.94;;;18.37;76.69
24620;BME280;12763;55.802;37.404;2023-05-22T04:40:23;100189.94;;;18.41;76.14
24620;BME280;12763;55.802;37.404;2023-05-22T04:42:52;100194.91;;;18.39;76.33
24620;BME280;12763;55.802;37.404;2023-05-22T04:45:19;100199.41;;;18.40;76.64
24620;BME280;12763;55.802;37.404;2023-05-22T04:47:45;100198.81;;;18.38;76.88
24620;BME280;12763;55.802;37.404;2023-05-22T04:50:11;100195.53;;;18.25;77.51
24620;BME280;12763;55.802;37.404;2023-05-22T04:52:39;100209.19;;;18.09;78.24
24620;BME280;12763;55.802;37.404;2023-05-22T04:55:05;100197.59;;;18.01;78.92
24620;BME280;12763;55.802;37.404;2023-05-22T04:57:33;100194.22;;;17.99;80.02
24620;BME280;12763;55.802;37.404;2023-05-22T04:59:58;100204.69;;;17.92;80.57
24620;BME280;12763;55.802;37.404;2023-05-22T05:02:24;100207.91;;;17.84;80.99
24620;BME280;12763;55.802;37.404;2023-05-22T05:04:50;100196.13;;;17.82;81.21
24620;BME280;12763;55.802;37.404;2023-05-22T05:07:17;100206.09;;;17.78;81.43
24620;BME280;12763;55.802;37.404;2023-05-22T05:09:44;100202.44;;;17.77;82.31
24620;BME280;12763;55.802;37.404;2023-05-22T05:12:10;100204.16;;;17.78;82.93
24620;BME280;12763;55.802;37.404;2023-05-22T05:14:36;100210.34;;;17.80;83.13
24620;BME280;12763;55.802;37.404;2023-05-22T05:17:02;100211.41;;;17.79;84.00
24620;BME280;12763;55.802;37.404;2023-05-22T05:19:29;100209.88;;;17.72;85.66
24620;BME280;12763;55.802;37.404;2023-05-22T05:21:54;100207.69;;;17.74;86.47
24620;BME280;12763;55.802;37.404;2023-05-22T05:24:20;100203.31;;;17.78;87.76
24620;BME280;12763;55.802;37.404;2023-05-22T05:26:49;100213.72;;;17.82;88.42
24620;BME280;12763;55.802;37.404;2023-05-22T05:29:17;100209.75;;;17.78;90.07
24620;BME280;12763;55.802;37.404;2023-05-22T05:31:56;100207.09;;;17.72;91.78
24620;BME280;12763;55.802;37.404;2023-05-22T05:34:37;100212.63;;;17.83;92.53
24620;BME280;12763;55.802;37.404;2023-05-22T05:37:06;100192.81;;;17.85;93.32
24620;BME280;12763;55.802;37.404;2023-05-22T05:39:32;100200.09;;;17.86;94.50
24620;BME280;12763;55.802;37.404;2023-05-22T05:42:00;100199.41;;;17.79;96.50
24620;BME280;12763;55.802;37.404;2023-05-22T05:44:27;100200.44;;;17.73;98.75
24620;BME280;12763;55.802;37.404;2023-05-22T05:46:53;100198.53;;;17.62;100.00
24620;BME280;12763;55.802;37.404;2023-05-22T05:49:21;100200.97;;;17.58;100.00
24620;BME280;12763;55.802;37.404;2023-05-22T05:51:47;100202.31;;;17.44;100.00
24620;BME280;12763;55.802;37.404;2023-05-22T05:54:14;100203.44;;;17.31;100.00
24620;BME280;12763;55.802;37.404;2023-05-22T05:56:40;100209.03;;;17.31;100.00
24620;BME280;12763;55.802;37.404;2023-05-22T05:59:06;100219.06;;;17.32;100.00
24620;BME280;12763;55.802;37.404;2023-05-22T06:01:33;100221.16;;;17.25;100.00
24620;BME280;12763;55.802;37.404;2023-05-22T06:04:01;100226.28;;;17.05;100.00
24620;BME280;12763;55.802;37.404;2023-05-22T06:06:30;100238.28;;;17.06;100.00
24620;BME280;12763;55.802;37.404;2023-05-22T06:09:22;100241.56;;;16.91;100.00
24620;BME280;12763;55.802;37.404;2023-05-22T06:12:09;100236.09;;;16.96;100.00
24620;BME280;12763;55.802;37.404;2023-05-22T06:14:38;100246.53;;;17.00;100.00
24620;BME280;12763;55.802;37.404;2023-05-22T06:17:07;100235.38;;;17.00;100.00
24620;BME280;12763;55.802;37.404;2023-05-22T06:19:35;100232.94;;;17.04;100.00
24620;BME280;12763;55.802;37.404;2023-05-22T06:22:02;100227.13;;;17.06;100.00
24620;BME280;12763;55.802;37.404;2023-05-22T06:24:28;100227.50;;;17.09;100.00
24620;BME280;12763;55.802;37.404;2023-05-22T06:26:59;100238.16;;;17.12;100.00
24620;BME280;12763;55.802;37.404;2023-05-22T06:29:27;100240.59;;;17.09;100.00
24620;BME280;12763;55.802;37.404;2023-05-22T06:31:55;100237.31;;;17.12;100.00
24620;BME280;12763;55.802;37.404;2023-05-22T06:34:22;100243.59;;;17.19;100.00
24620;BME280;12763;55.802;37.404;2023-05-22T06:36:49;100231.94;;;17.22;100.00
24620;BME280;12763;55.802;37.404;2023-05-22T06:39:17;100237.25;;;17.35;100.00
24620;BME280;12763;55.802;37.404;2023-05-22T06:42:02;100225.59;;;17.49;100.00
24620;BME280;12763;55.802;37.404;2023-05-22T06:44:48;100235.28;;;17.47;100.00
24620;BME280;12763;55.802;37.404;2023-05-22T06:47:14;100229.63;;;17.53;100.00
24620;BME280;12763;55.802;37.404;2023-05-22T06:49:40;100228.22;;;17.68;100.00
24620;BME280;12763;55.802;37.404;2023-05-22T06:52:06;100223.56;;;17.73;100.00
24620;BME280;12763;55.802;37.404;2023-05-22T06:54:32;100223.06;;;17.76;100.00
24620;BME280;12763;55.802;37.404;2023-05-22T06:56:58;100220.84;;;17.90;100.00
24620;BME280;12763;55.802;37.404;2023-05-22T06:59:26;100209.53;;;17.96;100.00
24620;BME280;12763;55.802;37.404;2023-05-22T07:02:04;100213.06;;;17.92;100.00
24620;BME280;12763;55.802;37.404;2023-05-22T07:04:41;100216.69;;;17.92;100.00
24620;BME280;12763;55.802;37.404;2023-05-22T07:07:11;100220.16;;;17.83;100.00
24620;BME280;12763;55.802;37.404;2023-05-22T07:09:37;100232.22;;;17.72;100.00
24620;BME280;12763;55.802;37.404;2023-05-22T07:12:05;100233.59;;;17.46;100.00
24620;BME280;12763;55.802;37.404;2023-05-22T07:14:32;100223.66;;;17.38;100.00
24620;BME280;12763;55.802;37.404;2023-05-22T07:16:58;100206.34;;;17.36;100.00
24620;BME280;12763;55.802;37.404;2023-05-22T07:19:32;100216.84;;;17.57;100.00
24620;BME280;12763;55.802;37.404;2023-05-22T07:22:02;100218.16;;;17.67;100.00
24620;BME280;12763;55.802;37.404;2023-05-22T07:24:29;100212.75;;;17.77;100.00
24620;BME280;12763;55.802;37.404;2023-05-22T07:26:55;100213.63;;;17.77;100.00
24620;BME280;12763;55.802;37.404;2023-05-22T07:29:21;100236.84;;;17.66;100.00
24620;BME280;12763;55.802;37.404;2023-05-22T07:31:49;100289.06;;;17.19;100.00
24620;BME280;12763;55.802;37.404;2023-05-22T07:34:16;100285.31;;;17.02;100.00
24620;BME280;12763;55.802;37.404;2023-05-22T07:36:43;100242.03;;;17.11;100.00
24620;BME280;12763;55.802;37.404;2023-05-22T07:39:09;100225.75;;;17.31;100.00
24620;BME280;12763;55.802;37.404;2023-05-22T07:41:39;100230.00;;;17.34;100.00
24620;BME280;12763;55.802;37.404;2023-05-22T07:44:07;100245.09;;;17.49;100.00
24620;BME280;12763;55.802;37.404;2023-05-22T07:46:36;100233.59;;;17.46;100.00
24620;BME280;12763;55.802;37.404;2023-05-22T07:49:09;100214.56;;;17.54;100.00
24620;BME280;12763;55.802;37.404;2023-05-22T07:51:38;100227.63;;;17.66;100.00
24620;BME280;12763;55.802;37.404;2023-05-22T07:54:06;100264.28;;;17.57;100.00
24620;BME280;12763;55.802;37.404;2023-05-22T07:56:33;100262.13;;;17.48;100.00
24620;BME280;12763;55.802;37.404;2023-05-22T07:59:04;100263.09;;;17.53;100.00
24620;BME280;12763;55.802;37.404;2023-05-22T08:01:30;100242.31;;;17.49;100.00
24620;BME280;12763;55.802;37.404;2023-05-22T08:03:55;100234.84;;;17.27;100.00
24620;BME280;12763;55.802;37.404;2023-05-22T08:06:21;100242.69;;;17.65;100.00
24620;BME280;12763;55.802;37.404;2023-05-22T08:08:49;100252.63;;;17.60;100.00
24620;BME280;12763;55.802;37.404;2023-05-22T08:11:17;100246.69;;;17.57;100.00
24620;BME280;12763;55.802;37.404;2023-05-22T08:13:43;100245.28;;;17.83;100.00
24620;BME280;12763;55.802;37.404;2023-05-22T08:16:09;100251.03;;;17.93;100.00
24620;BME280;12763;55.802;37.404;2023-05-22T08:18:35;100263.19;;;17.87;100.00
24620;BME280;12763;55.802;37.404;2023-05-22T08:21:01;100274.06;;;17.72;100.00
24620;BME280;12763;55.802;37.404;2023-05-22T08:23:27;100288.31;;;17.58;100.00
24620;BME280;12763;55.802;37.404;2023-05-22T08:25:55;100279.56;;;17.67;100.00
24620;BME280;12763;55.802;37.404;2023-05-22T08:28:21;100277.56;;;17.79;100.00
24620;BME280;12763;55.802;37.404;2023-05-22T08:30:47;100282.16;;;17.85;100.00
24620;BME280;12763;55.802;37.404;2023-05-22T08:33:12;100273.69;;;17.80;100.00
24620;BME280;12763;55.802;37.404;2023-05-22T08:35:38;100270.41;;;17.83;100.00
24620;BME280;12763;55.802;37.404;2023-05-22T08:38:04;100271.09;;;17.90;100.00
24620;BME280;12763;55.802;37.404;2023-05-22T08:40:35;100267.72;;;18.16;100.00
24620;BME280;12763;55.802;37.404;2023-05-22T08:43:05;100270.09;;;18.52;100.00
24620;BME280;12763;55.802;37.404;2023-05-22T08:45:33;100261.00;;;18.78;100.00
24620;BME280;12763;55.802;37.404;2023-05-22T08:48:04;100265.25;;;18.81;100.00
24620;BME280;12763;55.802;37.404;2023-05-22T08:50:31;100255.09;;;18.92;100.00
24620;BME280;12763;55.802;37.404;2023-05-22T08:52:59;100250.00;;;18.89;100.00
24620;BME280;12763;55.802;37.404;2023-05-22T08:55:29;100252.63;;;18.78;100.00
24620;BME280;12763;55.802;37.404;2023-05-22T08:57:55;100235.06;;;19.00;100.00
24620;BME280;12763;55.802;37.404;2023-05-22T09:00:22;100238.59;;;19.12;100.00
24620;BME280;12763;55.802;37.404;2023-05-22T09:02:48;100245.63;;;19.36;100.00
24620;BME280;12763;55.802;37.404;2023-05-22T09:05:14;100240.84;;;19.31;100.00
24620;BME280;12763;55.802;37.404;2023-05-22T09:07:41;100231.59;;;19.31;100.00
24620;BME280;12763;55.802;37.404;2023-05-22T09:10:07;100223.03;;;19.59;100.00
24620;BME280;12763;55.802;37.404;2023-05-22T09:12:33;100209.94;;;19.65;100.00
24620;BME280;12763;55.802;37.404;2023-05-22T09:15:09;100211.28;;;19.84;100.00
24620;BME280;12763;55.802;37.404;2023-05-22T09:17:39;100230.69;;;19.90;100.00
24620;BME280;12763;55.802;37.404;2023-05-22T09:20:06;100241.56;;;20.14;100.00
24620;BME280;12763;55.802;37.404;2023-05-22T09:22:37;100235.94;;;20.09;100.00
24620;BME280;12763;55.802;37.404;2023-05-22T09:25:04;100233.13;;;20.09;100.00
24620;BME280;12763;55.802;37.404;2023-05-22T09:27:32;100230.56;;;20.29;100.00
24620;BME280;12763;55.802;37.404;2023-05-22T09:29:58;100231.22;;;20.41;100.00
24620;BME280;12763;55.802;37.404;2023-05-22T09:32:28;100238.25;;;20.75;100.00
24620;BME280;12763;55.802;37.404;2023-05-22T09:35:01;100227.59;;;20.72;100.00
24620;BME280;12763;55.802;37.404;2023-05-22T09:37:33;100231.09;;;20.89;100.00
24620;BME280;12763;55.802;37.404;2023-05-22T09:40:07;100225.69;;;20.83;100.00
24620;BME280;12763;55.802;37.404;2023-05-22T09:42:34;100223.56;;;20.95;100.00
24620;BME280;12763;55.802;37.404;2023-05-22T09:45:05;100220.03;;;21.10;100.00
24620;BME280;12763;55.802;37.404;2023-05-22T09:47:34;100221.31;;;21.39;100.00
24620;BME280;12763;55.802;37.404;2023-05-22T09:50:02;100224.13;;;21.44;100.00
24620;BME280;12763;55.802;37.404;2023-05-22T09:52:33;100224.84;;;21.76;100.00
24620;BME280;12763;55.802;37.404;2023-05-22T09:55:04;100223.16;;;21.70;100.00
24620;BME280;12763;55.802;37.404;2023-05-22T09:57:43;100216.44;;;21.76;100.00
24620;BME280;12763;55.802;37.404;2023-05-22T10:00:14;100210.22;;;21.69;100.00
24620;BME280;12763;55.802;37.404;2023-05-22T10:02:48;100210.53;;;21.78;100.00
24620;BME280;12763;55.802;37.404;2023-05-22T10:05:15;100208.72;;;21.51;100.00
24620;BME280;12763;55.802;37.404;2023-05-22T10:07:54;100210.84;;;21.86;100.00
24620;BME280;12763;55.802;37.404;2023-05-22T10:10:23;100213.63;;;21.81;100.00
24620;BME280;12763;55.802;37.404;2023-05-22T10:12:56;100206.41;;;22.05;100.00
24620;BME280;12763;55.802;37.404;2023-05-22T10:15:25;100203.31;;;22.02;100.00
24620;BME280;12763;55.802;37.404;2023-05-22T10:17:51;100194.06;;;22.21;100.00
24620;BME280;12763;55.802;37.404;2023-05-22T10:20:18;100200.03;;;22.65;97.78
24620;BME280;12763;55.802;37.404;2023-05-22T10:22:45;100190.16;;;22.63;97.25
24620;BME280;12763;55.802;37.404;2023-05-22T10:25:12;100195.78;;;22.93;94.78
24620;BME280;12763;55.802;37.404;2023-05-22T10:27:38;100186.44;;;23.13;93.57
24620;BME280;12763;55.802;37.404;2023-05-22T10:30:32;100188.63;;;23.31;89.53
24620;BME280;12763;55.802;37.404;2023-05-22T10:33:35;100179.88;;;23.48;90.88
24620;BME280;12763;55.802;37.404;2023-05-22T10:36:19;100193.44;;;23.30;88.40
24620;BME280;12763;55.802;37.404;2023-05-22T10:41:24;100193.44;;;23.35;89.55
24620;BME280;12763;55.802;37.404;2023-05-22T10:43:50;100188.72;;;23.85;86.79
24620;BME280;12763;55.802;37.404;2023-05-22T10:46:17;100192.69;;;23.79;87.07
24620;BME280;12763;55.802;37.404;2023-05-22T10:48:44;100182.78;;;23.91;86.86
24620;BME280;12763;55.802;37.404;2023-05-22T10:51:12;100187.59;;;23.81;86.37
24620;BME280;12763;55.802;37.404;2023-05-22T10:53:38;100181.38;;;23.10;89.71
24620;BME280;12763;55.802;37.404;2023-05-22T10:56:12;100181.28;;;23.45;87.74
24620;BME280;12763;55.802;37.404;2023-05-22T10:58:41;100178.13;;;23.62;86.37
24620;BME280;12763;55.802;37.404;2023-05-22T11:01:09;100185.44;;;23.68;85.73
24620;BME280;12763;55.802;37.404;2023-05-22T11:03:59;100175.75;;;23.84;85.76
24620;BME280;12763;55.802;37.404;2023-05-22T11:06:42;100185.25;;;23.98;85.56
24620;BME280;12763;55.802;37.404;2023-05-22T11:09:17;100174.19;;;23.63;86.15
24620;BME280;12763;55.802;37.404;2023-05-22T11:11:44;100171.13;;;23.54;87.62
24620;BME280;12763;55.802;37.404;2023-05-22T11:14:11;100168.25;;;23.64;86.84
24620;BME280;12763;55.802;37.404;2023-05-22T11:16:38;100170.94;;;23.89;86.34
24620;BME280;12763;55.802;37.404;2023-05-22T11:19:08;100171.84;;;24.29;84.42
24620;BME280;12763;55.802;37.404;2023-05-22T11:21:44;100164.75;;;24.31;81.92
24620;BME280;12763;55.802;37.404;2023-05-22T11:24:12;100157.19;;;24.61;81.85
24620;BME280;12763;55.802;37.404;2023-05-22T11:26:41;100161.09;;;24.65;81.81
24620;BME280;12763;55.802;37.404;2023-05-22T11:29:07;100155.88;;;24.82;79.62
24620;BME280;12763;55.802;37.404;2023-05-22T11:31:36;100157.19;;;25.18;75.89
24620;BME280;12763;55.802;37.404;2023-05-22T11:34:03;100149.34;;;25.57;75.02
24620;BME280;12763;55.802;37.404;2023-05-22T11:36:29;100148.22;;;25.58;73.92
24620;BME280;12763;55.802;37.404;2023-05-22T11:38:57;100149.91;;;25.59;73.85
24620;BME280;12763;55.802;37.404;2023-05-22T11:41:31;100137.94;;;25.67;71.78
24620;BME280;12763;55.802;37.404;2023-05-22T11:43:58;100152.06;;;25.86;70.67
24620;BME280;12763;55.802;37.404;2023-05-22T11:46:24;100147.03;;;25.83;69.95
24620;BME280;12763;55.802;37.404;2023-05-22T11:48:51;100149.16;;;25.91;69.59
24620;BME280;12763;55.802;37.404;2023-05-22T11:51:19;100153.44;;;25.70;69.86
24620;BME280;12763;55.802;37.404;2023-05-22T11:53:46;100150.97;;;25.16;71.90
24620;BME280;12763;55.802;37.404;2023-05-22T11:56:12;100150.88;;;25.26;71.80
24620;BME280;12763;55.802;37.404;2023-05-22T11:58:38;100148.69;;;25.42;71.95
24620;BME280;12763;55.802;37.404;2023-05-22T12:01:04;100149.00;;;25.40;72.24
24620;BME280;12763;55.802;37.404;2023-05-22T12:03:31;100137.09;;;25.67;70.47
24620;BME280;12763;55.802;37.404;2023-05-22T12:05:57;100137.31;;;25.71;70.13
24620;BME280;12763;55.802;37.404;2023-05-22T12:08:24;100142.22;;;26.02;69.01
24620;BME280;12763;55.802;37.404;2023-05-22T12:10:52;100139.03;;;26.09;68.16
24620;BME280;12763;55.802;37.404;2023-05-22T12:13:37;100130.47;;;26.14;67.48
24620;BME280;12763;55.802;37.404;2023-05-22T12:16:17;100135.22;;;25.57;68.66
24620;BME280;12763;55.802;37.404;2023-05-22T12:18:44;100127.69;;;25.72;69.81
24620;BME280;12763;55.802;37.404;2023-05-22T12:21:10;100124.50;;;25.97;68.90
24620;BME280;12763;55.802;37.404;2023-05-22T12:23:47;100121.53;;;26.25;67.06
24620;BME280;12763;55.802;37.404;2023-05-22T12:26:13;100120.50;;;27.00;65.36
24620;BME280;12763;55.802;37.404;2023-05-22T12:28:39;100121.63;;;27.80;62.24
24620;BME280;12763;55.802;37.404;2023-05-22T12:31:05;100122.13;;;28.32;60.20
24620;BME280;12763;55.802;37.404;2023-05-22T12:33:31;100117.09;;;28.73;58.47
24620;BME280;12763;55.802;37.404;2023-05-22T12:35:57;100116.91;;;29.00;57.71
24620;BME280;12763;55.802;37.404;2023-05-22T12:38:29;100112.91;;;29.01;56.07
24620;BME280;12763;55.802;37.404;2023-05-22T12:40:55;100113.00;;;29.19;56.58
24620;BME280;12763;55.802;37.404;2023-05-22T12:43:23;100108.56;;;29.35;55.90
24620;BME280;12763;55.802;37.404;2023-05-22T12:45:52;100109.38;;;29.27;55.47
24620;BME280;12763;55.802;37.404;2023-05-22T12:48:18;100108.91;;;29.11;55.70
24620;BME280;12763;55.802;37.404;2023-05-22T12:50:45;100114.88;;;29.23;55.65
24620;BME280;12763;55.802;37.404;2023-05-22T12:53:11;100097.75;;;29.54;55.05
24620;BME280;12763;55.802;37.404;2023-05-22T12:55:38;100095.22;;;29.44;54.46
24620;BME280;12763;55.802;37.404;2023-05-22T12:58:04;100099.94;;;29.57;54.29
24620;BME280;12763;55.802;37.404;2023-05-22T13:00:31;100093.63;;;29.77;53.60